This is the latest recevied weather packets stored in our database for station/object OK2PAT-12. If no packets are shown the sender has not sent any weather packets the latest 10 day(s).
| Time | Temp. | Humidity | Pressure | Rain* | Wind** | Luminosity | Snow |
|---|---|---|---|---|---|---|---|
| 1778180854 | 11.67° C | 99% | 1015.4 hPa | - | - | - | - |
| 1778180255 | 11.67° C | 99% | 1015.3 hPa | - | - | - | - |
| 1778179654 | 12.22° C | 99% | 1015.1 hPa | - | - | - | - |
| 1778179054 | 12.22° C | 99% | 1014.9 hPa | - | - | - | - |
| 1778178454 | 12.22° C | 99% | 1014.7 hPa | - | - | - | - |
| 1778177855 | 12.22° C | 99% | 1014.5 hPa | - | - | - | - |
| 1778177254 | 13.33° C | 99% | 1014.6 hPa | - | - | - | - |
| 1778176654 | 13.33° C | 99% | 1014.5 hPa | - | - | - | - |
| 1778176055 | 13.33° C | 99% | 1014.2 hPa | - | - | - | - |
| 1778175454 | 13.89° C | 99% | 1014 hPa | - | - | - | - |
| 1778174854 | 15.56° C | 96% | 1013.9 hPa | - | - | - | - |
| 1778174254 | 17.22° C | 68% | 1013.6 hPa | - | - | - | - |
| 1778173654 | 18.89° C | 57% | 1013.1 hPa | - | - | - | - |
| 1778173054 | 19.44° C | 50% | 1012.8 hPa | - | - | - | - |
| 1778172454 | 20° C | 49% | 1012.6 hPa | - | - | - | - |
| 1778171854 | 20° C | 46% | 1012.6 hPa | - | - | - | - |
| 1778171254 | 20.56° C | 46% | 1012.6 hPa | - | - | - | - |
| 1778170654 | 20.56° C | 45% | 1012.6 hPa | - | - | - | - |
| 1778170056 | 21.11° C | 45% | 1012.6 hPa | - | - | - | - |
| 1778169454 | 21.11° C | 45% | 1012.6 hPa | - | - | - | - |
| 1778168854 | 21.67° C | 47% | 1012.6 hPa | - | - | - | - |
| 1778168254 | 22.22° C | 47% | 1012.6 hPa | - | - | - | - |
| 1778167654 | 21.67° C | 48% | 1012.5 hPa | - | - | - | - |
| 1778167054 | 21.67° C | 47% | 1012.5 hPa | - | - | - | - |
| 1778166454 | 21.67° C | 48% | 1012.5 hPa | - | - | - | - |
* Rain since midnight (hover to see other rain measurements)
** Current wind speed in m/s (hover to see current wind gust speed)